Time;durP1;ratioP1;P1;durP2;ratioP2;P2;SDS_P1;SDS_P2;PMS_P1;PMS_P2;Temp;Humidity;BMP_temperature;BMP_pressure;BME280_temperature;BME280_humidity;BME280_pressure;Samples;Min_cycle;Max_cycle;Signal;HPM_P1;HPM_P2
2022/07/26 00:00:18;;;;;;;3.90;1.97;;;23.10;99.90;;;;;;5053218;28;20435;-49
2022/07/26 00:02:46;;;;;;;7.80;2.90;;;23.10;99.90;;;;;;5047170;28;20445;-51
2022/07/26 00:05:15;;;;;;;3.60;2.57;;;23.10;99.90;;;;;;5052913;28;20652;-43
2022/07/26 00:07:43;;;;;;;2.23;2.13;;;23.10;99.90;;;;;;5046014;28;20540;-45
2022/07/26 00:10:12;;;;;;;2.80;2.60;;;23.10;99.90;;;;;;5051738;28;20412;-48
2022/07/26 00:12:39;;;;;;;3.90;2.43;;;23.10;99.90;;;;;;5045420;28;20418;-49
2022/07/26 00:15:10;;;;;;;3.43;2.80;;;23.00;99.90;;;;;;5052712;28;20499;-46
2022/07/26 00:17:37;;;;;;;5.00;3.57;;;23.00;99.90;;;;;;5050412;28;20459;-47
2022/07/26 00:20:06;;;;;;;6.33;2.47;;;22.90;99.90;;;;;;5031626;28;20399;-45
2022/07/26 00:22:33;;;;;;;4.03;3.70;;;22.90;99.90;;;;;;5049280;28;20416;-49
2022/07/26 00:25:03;;;;;;;2.53;2.33;;;22.90;99.90;;;;;;5052916;28;20411;-50
2022/07/26 00:27:31;;;;;;;2.93;2.70;;;23.00;99.90;;;;;;5051221;28;20442;-50
2022/07/26 00:29:58;;;;;;;4.27;3.33;;;23.10;99.90;;;;;;5048853;28;20423;-43
2022/07/26 00:32:25;;;;;;;4.20;2.83;;;23.10;99.90;;;;;;5054245;28;20424;-49
2022/07/26 00:34:53;;;;;;;3.93;2.47;;;23.10;99.90;;;;;;5051514;28;20519;-47
2022/07/26 00:37:20;;;;;;;4.23;2.57;;;23.00;99.90;;;;;;5044029;28;20603;-49
2022/07/26 00:39:48;;;;;;;3.37;2.80;;;22.90;99.90;;;;;;5048905;28;20700;-46
2022/07/26 00:42:16;;;;;;;3.87;3.30;;;22.90;99.90;;;;;;5049036;28;20423;-49
2022/07/26 00:44:45;;;;;;;3.50;3.20;;;22.90;99.90;;;;;;5048720;28;20499;-48
2022/07/26 00:47:12;;;;;;;2.73;2.53;;;22.80;99.90;;;;;;5048598;28;20468;-50
2022/07/26 00:49:40;;;;;;;2.70;2.50;;;22.90;99.90;;;;;;5051572;28;20696;-47
2022/07/26 00:52:09;;;;;;;3.33;2.80;;;22.90;99.90;;;;;;5033540;28;20765;-46
2022/07/26 00:54:37;;;;;;;3.30;3.00;;;22.90;99.90;;;;;;5051293;28;20419;-51
2022/07/26 00:57:05;;;;;;;4.43;3.10;;;22.80;99.90;;;;;;5049077;28;20456;-47
2022/07/26 00:59:33;;;;;;;3.40;3.10;;;22.80;99.90;;;;;;5050078;28;20436;-47
2022/07/26 01:02:02;;;;;;;5.27;3.27;;;23.00;99.90;;;;;;5049046;28;20418;-49
2022/07/26 01:04:30;;;;;;;2.83;2.63;;;22.80;99.90;;;;;;5049757;28;20438;-45
2022/07/26 01:06:58;;;;;;;3.50;3.20;;;22.80;99.90;;;;;;5047727;28;20454;-44
2022/07/26 01:09:26;;;;;;;3.37;2.67;;;22.80;99.90;;;;;;5049088;28;20448;-45
2022/07/26 01:11:53;;;;;;;7.13;2.90;;;22.80;99.90;;;;;;5047446;28;20419;-44
2022/07/26 01:14:24;;;;;;;3.40;3.10;;;22.80;99.90;;;;;;5048334;28;20441;-48
2022/07/26 01:16:52;;;;;;;3.70;3.00;;;22.80;99.90;;;;;;5048994;28;20486;-49
2022/07/26 01:19:20;;;;;;;4.40;3.10;;;22.80;99.90;;;;;;5045564;28;20628;-48
2022/07/26 01:21:48;;;;;;;3.30;3.00;;;22.90;99.90;;;;;;5047494;28;20410;-45
2022/07/26 01:24:16;;;;;;;3.30;3.00;;;22.90;99.90;;;;;;5045375;28;20668;-48
2022/07/26 01:26:44;;;;;;;4.60;3.20;;;23.20;99.90;;;;;;5050990;28;20453;-45
2022/07/26 01:29:11;;;;;;;4.10;3.37;;;23.40;99.90;;;;;;5045338;28;20408;-46
2022/07/26 01:31:39;;;;;;;3.10;2.90;;;23.60;99.90;;;;;;5050991;28;20418;-49
2022/07/26 01:34:06;;;;;;;5.83;2.93;;;23.60;99.90;;;;;;5051604;28;20461;-46
2022/07/26 01:36:34;;;;;;;3.10;2.80;;;23.50;99.90;;;;;;5045571;28;20801;-48
2022/07/26 01:39:01;;;;;;;2.80;2.60;;;23.40;99.90;;;;;;5048642;28;20473;-49
2022/07/26 01:41:28;;;;;;;12.17;3.93;;;23.40;99.90;;;;;;5056396;28;20410;-49
2022/07/26 01:44:04;;;;;;;3.67;3.37;;;23.30;99.90;;;;;;5048093;28;20440;-47
2022/07/26 01:46:34;;;;;;;2.90;2.60;;;23.50;99.90;;;;;;5049662;28;20802;-44
2022/07/26 01:49:02;;;;;;;3.83;3.10;;;23.60;99.90;;;;;;5047047;28;20407;-45
2022/07/26 01:51:29;;;;;;;3.80;3.00;;;23.70;99.90;;;;;;5051079;28;20411;-48
2022/07/26 01:53:56;;;;;;;3.33;2.90;;;23.80;99.90;;;;;;5045252;28;20631;-49
2022/07/26 01:56:24;;;;;;;3.40;3.10;;;23.60;99.90;;;;;;5053488;28;20431;-50
2022/07/26 01:58:51;;;;;;;4.07;2.90;;;23.30;99.90;;;;;;5047812;28;20456;-53
2022/07/26 02:01:19;;;;;;;3.27;2.97;;;23.50;99.90;;;;;;5049862;28;20496;-47
2022/07/26 02:04:06;;;;;;;3.53;3.23;;;23.50;99.90;;;;;;5046974;28;20624;-47
2022/07/26 02:06:33;;;;;;;2.93;2.73;;;23.70;99.90;;;;;;5049058;28;20458;-46
2022/07/26 02:09:03;;;;;;;4.93;3.00;;;23.80;99.90;;;;;;5047668;28;20442;-48
2022/07/26 02:11:33;;;;;;;10.50;4.00;;;23.60;99.90;;;;;;5048455;28;20407;-47
2022/07/26 02:14:02;;;;;;;4.70;3.30;;;23.50;99.90;;;;;;5047523;28;20411;-51
2022/07/26 02:16:29;;;;;;;3.13;2.77;;;23.30;99.90;;;;;;5049808;28;20531;-44
2022/07/26 02:18:56;;;;;;;3.93;3.60;;;23.20;99.90;;;;;;5047261;28;20559;-46
2022/07/26 02:21:23;;;;;;;7.63;3.60;;;22.80;99.90;;;;;;5049065;28;20430;-45
2022/07/26 02:23:51;;;;;;;3.70;3.20;;;22.70;99.90;;;;;;5048104;28;20400;-48
2022/07/26 02:26:19;;;;;;;3.93;3.13;;;22.60;99.90;;;;;;5048190;28;20776;-44
2022/07/26 02:28:46;;;;;;;3.43;3.00;;;22.50;99.90;;;;;;5048029;28;20444;-47
2022/07/26 02:31:13;;;;;;;5.63;3.77;;;22.40;99.90;;;;;;5047599;28;20630;-47
2022/07/26 02:33:41;;;;;;;6.23;4.13;;;22.20;99.90;;;;;;5051945;28;20441;-53
2022/07/26 02:36:08;;;;;;;4.40;4.00;;;21.70;99.90;;;;;;5051047;28;20460;-50
2022/07/26 02:38:35;;;;;;;5.37;4.90;;;20.80;99.90;;;;;;5052631;28;20670;-49
2022/07/26 02:41:05;;;;;;;5.97;4.90;;;20.10;99.90;;;;;;5056587;28;20405;-48
2022/07/26 02:43:32;;;;;;;5.17;4.40;;;19.70;99.90;;;;;;5054536;28;20553;-50
2022/07/26 02:45:59;;;;;;;6.63;5.10;;;19.40;99.90;;;;;;5053853;28;20405;-49
2022/07/26 02:48:29;;;;;;;5.93;5.43;;;19.30;99.90;;;;;;5047674;28;20488;-53
2022/07/26 02:50:57;;;;;;;7.63;5.00;;;19.30;99.90;;;;;;5054220;28;20464;-49
2022/07/26 02:53:24;;;;;;;6.30;5.40;;;19.30;99.90;;;;;;5047210;28;20416;-50
2022/07/26 02:55:51;;;;;;;7.83;6.30;;;19.30;99.90;;;;;;5054067;28;20733;-48
2022/07/26 02:58:23;;;;;;;7.30;6.57;;;19.30;99.90;;;;;;5054412;28;20465;-47
2022/07/26 03:00:51;;;;;;;7.20;6.37;;;19.30;99.90;;;;;;5049258;28;20652;-47
2022/07/26 03:03:18;;;;;;;6.13;5.53;;;19.30;99.90;;;;;;5054471;28;20440;-45
2022/07/26 03:05:46;;;;;;;6.80;6.17;;;19.30;99.90;;;;;;5047489;28;20471;-47
2022/07/26 03:08:13;;;;;;;7.70;6.33;;;19.20;99.90;;;;;;5053990;28;20428;-49
2022/07/26 03:10:40;;;;;;;8.27;6.87;;;19.10;99.90;;;;;;5046651;28;20625;-48
2022/07/26 03:13:07;;;;;;;15.80;8.27;;;19.00;99.90;;;;;;5053790;28;20412;-49
2022/07/26 03:15:34;;;;;;;9.30;7.17;;;19.00;99.90;;;;;;5052045;28;20412;-48
2022/07/26 03:18:02;;;;;;;8.30;7.10;;;19.00;99.90;;;;;;5050229;28;20518;-50
2022/07/26 03:20:29;;;;;;;8.53;7.70;;;19.00;99.90;;;;;;5052697;28;20512;-49
2022/07/26 03:22:57;;;;;;;8.67;7.70;;;19.00;99.90;;;;;;5048237;28;20439;-50
2022/07/26 03:25:24;;;;;;;8.80;8.03;;;19.20;99.90;;;;;;5053197;28;20439;-44
2022/07/26 03:27:55;;;;;;;7.80;7.00;;;19.20;99.90;;;;;;5046565;28;20443;-47
2022/07/26 03:30:24;;;;;;;8.23;7.20;;;19.30;99.90;;;;;;5050912;28;20404;-47
2022/07/26 03:32:52;;;;;;;8.47;7.67;;;19.40;99.90;;;;;;5050147;28;20509;-47
2022/07/26 03:35:20;;;;;;;11.80;9.27;;;19.50;99.90;;;;;;5052387;28;20441;-48
2022/07/26 03:37:47;;;;;;;10.20;9.07;;;19.50;99.90;;;;;;5049657;28;20452;-47
2022/07/26 03:40:15;;;;;;;9.90;8.93;;;19.60;99.90;;;;;;5050610;28;20703;-51
2022/07/26 03:42:44;;;;;;;10.87;8.77;;;19.70;99.90;;;;;;5052754;28;20426;-45
2022/07/26 03:45:14;;;;;;;8.33;7.63;;;19.80;99.90;;;;;;5050062;28;20739;-51
2022/07/26 03:47:42;;;;;;;9.40;8.60;;;19.90;99.90;;;;;;5051104;28;20470;-48
2022/07/26 03:50:10;;;;;;;10.43;9.33;;;20.00;99.90;;;;;;5050009;28;20425;-51
2022/07/26 03:52:37;;;;;;;10.83;9.70;;;20.10;99.90;;;;;;5049935;28;20446;-52
2022/07/26 03:57:51;;;;;;;11.67;9.60;;;20.30;99.90;;;;;;5050774;28;20482;-51
2022/07/26 04:00:19;;;;;;;11.57;9.67;;;20.40;99.90;;;;;;5047590;28;20453;-48
2022/07/26 04:02:46;;;;;;;11.00;9.77;;;20.40;99.90;;;;;;5049488;28;20714;-45
2022/07/26 04:05:14;;;;;;;10.40;8.97;;;20.50;99.90;;;;;;5047350;28;20409;-44
2022/07/26 04:07:42;;;;;;;11.97;9.20;;;20.60;99.90;;;;;;5052030;28;20464;-47
2022/07/26 04:10:18;;;;;;;9.83;8.83;;;20.70;99.90;;;;;;5045655;28;20462;-48
2022/07/26 04:12:46;;;;;;;10.50;9.23;;;20.80;99.90;;;;;;5053000;28;20430;-46
2022/07/26 04:15:15;;;;;;;9.47;8.60;;;20.80;99.90;;;;;;5052649;28;20412;-46
2022/07/26 04:17:43;;;;;;;9.70;8.70;;;20.90;99.90;;;;;;5046221;28;20507;-46
2022/07/26 04:20:11;;;;;;;9.63;8.83;;;20.90;99.90;;;;;;5052387;28;20471;-49
2022/07/26 04:22:40;;;;;;;13.10;9.70;;;20.90;99.90;;;;;;5045762;28;20682;-50
2022/07/26 04:25:09;;;;;;;14.00;10.20;;;20.90;99.90;;;;;;5052362;28;20414;-45
2022/07/26 04:27:36;;;;;;;9.73;8.83;;;20.90;99.90;;;;;;5044790;28;20441;-46
2022/07/26 04:30:05;;;;;;;9.80;9.00;;;20.90;99.90;;;;;;5051898;28;20502;-46
2022/07/26 04:32:40;;;;;;;10.93;9.03;;;20.90;99.90;;;;;;5049812;28;20443;-49
2022/07/26 04:35:08;;;;;;;10.00;8.80;;;21.00;99.90;;;;;;5048844;28;20415;-46
2022/07/26 04:37:39;;;;;;;10.67;8.17;;;21.00;99.90;;;;;;5050370;28;20516;-48
2022/07/26 04:40:07;;;;;;;8.50;7.70;;;20.90;99.90;;;;;;5048109;28;20471;-48
2022/07/26 04:42:36;;;;;;;10.10;9.00;;;21.00;99.90;;;;;;5052809;28;20402;-46
2022/07/26 04:45:04;;;;;;;9.37;8.57;;;21.00;99.90;;;;;;5048845;28;20429;-47
2022/07/26 04:47:34;;;;;;;9.43;8.43;;;21.10;99.90;;;;;;5050045;28;20820;-47
2022/07/26 04:50:02;;;;;;;9.40;8.57;;;21.10;99.90;;;;;;5048894;28;20439;-46
2022/07/26 04:52:30;;;;;;;10.53;8.60;;;21.10;99.90;;;;;;5048861;28;20407;-48
2022/07/26 04:54:59;;;;;;;9.97;8.30;;;21.20;99.90;;;;;;5048880;28;20490;-47
2022/07/26 04:57:27;;;;;;;8.20;7.30;;;21.20;99.90;;;;;;5048659;28;20490;-48
2022/07/26 05:00:11;;;;;;;6.80;6.20;;;21.30;99.90;;;;;;5009989;28;20419;-46
2022/07/26 05:02:49;;;;;;;7.90;7.20;;;21.30;99.90;;;;;;5048441;28;20418;-49
2022/07/26 05:05:17;;;;;;;6.10;5.03;;;21.40;99.90;;;;;;5045690;28;20493;-48
2022/07/26 05:07:46;;;;;;;6.17;5.57;;;21.40;99.90;;;;;;5050811;28;20623;-46
2022/07/26 05:10:14;;;;;;;6.90;5.27;;;21.40;99.90;;;;;;5045756;28;20551;-48
2022/07/26 05:12:42;;;;;;;6.07;5.20;;;21.60;99.90;;;;;;5050912;28;20462;-50
2022/07/26 05:15:09;;;;;;;6.50;5.37;;;21.60;99.90;;;;;;5051887;28;20418;-48
2022/07/26 05:17:41;;;;;;;5.07;4.57;;;21.80;99.90;;;;;;5045430;28;20767;-45
2022/07/26 05:20:12;;;;;;;4.77;4.37;;;21.90;99.90;;;;;;5051575;28;20436;-50
2022/07/26 05:22:39;;;;;;;4.13;3.83;;;22.10;99.90;;;;;;5044869;28;20478;-49
2022/07/26 05:25:08;;;;;;;5.53;5.03;;;22.10;99.90;;;;;;5051737;28;20404;-50
2022/07/26 05:27:35;;;;;;;5.50;4.90;;;22.30;99.90;;;;;;5044282;28;20464;-47
2022/07/26 05:30:03;;;;;;;6.23;4.70;;;22.50;99.90;;;;;;5054890;28;20761;-49
2022/07/26 05:32:30;;;;;;;4.83;4.43;;;22.40;99.90;;;;;;5069869;28;20772;-47
2022/07/26 05:34:57;;;;;;;5.60;4.50;;;22.40;99.90;;;;;;5056274;28;20437;-53
2022/07/26 05:37:25;;;;;;;7.63;5.13;;;22.40;99.90;;;;;;5051569;28;20796;-49
2022/07/26 05:39:52;;;;;;;5.17;4.67;;;22.20;99.90;;;;;;5046642;28;20837;-53
2022/07/26 05:42:19;;;;;;;5.00;3.80;;;22.10;99.90;;;;;;5054268;28;20439;-45
2022/07/26 05:44:46;;;;;;;6.30;4.47;;;21.80;99.90;;;;;;5052521;28;20415;-45
2022/07/26 05:47:13;;;;;;;5.83;5.23;;;21.70;99.90;;;;;;5048279;28;20678;-45
2022/07/26 05:49:41;;;;;;;4.80;4.40;;;21.50;99.90;;;;;;5048689;28;20446;-46
2022/07/26 05:52:08;;;;;;;5.80;4.33;;;21.50;99.90;;;;;;5048127;28;20802;-47
2022/07/26 05:54:36;;;;;;;5.60;4.60;;;21.60;99.90;;;;;;5049016;28;20432;-51
2022/07/26 05:57:03;;;;;;;5.13;4.63;;;21.60;99.90;;;;;;5048094;28;20628;-52
2022/07/26 05:59:32;;;;;;;5.87;4.97;;;21.60;99.90;;;;;;5049833;28;20487;-48
2022/07/26 06:01:59;;;;;;;13.57;5.00;;;21.70;99.90;;;;;;5048338;28;20598;-47
2022/07/26 06:04:27;;;;;;;6.60;4.47;;;21.80;99.90;;;;;;5049310;28;20508;-47
2022/07/26 06:06:54;;;;;;;4.13;3.73;;;21.80;99.90;;;;;;5047887;28;20451;-45
2022/07/26 06:09:25;;;;;;;4.60;4.20;;;21.80;99.90;;;;;;5051520;28;20442;-46
2022/07/26 06:11:53;;;;;;;5.33;4.83;;;21.80;99.90;;;;;;5051899;28;20429;-45
2022/07/26 06:14:21;;;;;;;4.70;3.87;;;21.90;99.90;;;;;;5051091;28;20455;-46
2022/07/26 06:16:48;;;;;;;4.93;4.40;;;21.80;99.90;;;;;;5051346;28;20436;-46
2022/07/26 06:19:16;;;;;;;5.10;4.60;;;21.80;99.90;;;;;;5050842;28;20475;-46
2022/07/26 06:21:44;;;;;;;5.03;4.53;;;21.80;99.90;;;;;;5052947;28;20618;-45
2022/07/26 06:24:12;;;;;;;4.67;3.77;;;21.90;99.90;;;;;;5050987;28;20815;-48
2022/07/26 06:26:39;;;;;;;4.67;4.23;;;21.90;99.90;;;;;;5051885;28;20548;-46
2022/07/26 06:29:07;;;;;;;4.20;3.80;;;21.70;99.90;;;;;;5051621;28;20438;-45
2022/07/26 06:31:34;;;;;;;5.50;3.83;;;21.80;99.90;;;;;;5053164;28;20497;-48
2022/07/26 06:34:02;;;;;;;3.90;3.60;;;21.80;99.90;;;;;;5051532;28;20491;-50
2022/07/26 06:36:29;;;;;;;5.40;4.90;;;21.90;99.90;;;;;;5052085;28;20463;-46
2022/07/26 06:38:57;;;;;;;7.10;4.43;;;22.00;99.90;;;;;;5033520;28;20538;-51
2022/07/26 06:41:25;;;;;;;4.63;4.20;;;22.10;99.90;;;;;;5058895;28;20413;-45
2022/07/26 06:43:53;;;;;;;4.00;3.60;;;22.20;99.90;;;;;;5049523;28;20413;-46
2022/07/26 06:46:21;;;;;;;3.83;3.53;;;22.30;99.90;;;;;;5054251;28;20449;-46
2022/07/26 06:48:49;;;;;;;3.77;3.30;;;22.40;99.90;;;;;;5048254;28;20669;-49
2022/07/26 06:51:19;;;;;;;3.57;3.37;;;22.50;99.90;;;;;;5056917;28;20756;-48
2022/07/26 06:53:47;;;;;;;5.13;3.60;;;22.60;99.90;;;;;;5046970;28;20437;-46
2022/07/26 06:56:16;;;;;;;4.53;3.83;;;22.40;99.90;;;;;;5053935;28;20446;-45
2022/07/26 06:58:44;;;;;;;4.93;3.20;;;22.30;99.90;;;;;;5050911;28;20469;-47
2022/07/26 07:01:13;;;;;;;3.97;3.60;;;22.20;99.90;;;;;;5051839;28;20433;-48
2022/07/26 07:04:00;;;;;;;3.83;3.50;;;22.30;99.90;;;;;;5050597;28;20801;-49
2022/07/26 07:06:27;;;;;;;6.20;3.40;;;22.40;99.90;;;;;;5051539;28;20455;-48
2022/07/26 07:08:55;;;;;;;3.57;3.27;;;22.70;99.90;;;;;;5050385;28;20441;-47
2022/07/26 07:11:22;;;;;;;3.10;2.90;;;22.70;99.90;;;;;;5051002;28;20440;-48
2022/07/26 07:13:52;;;;;;;4.77;3.50;;;22.80;99.90;;;;;;5050854;28;20446;-49
2022/07/26 07:16:19;;;;;;;6.50;3.30;;;22.80;99.90;;;;;;5058314;28;20807;-46
2022/07/26 07:18:46;;;;;;;6.10;3.20;;;22.70;99.90;;;;;;5054466;28;20456;-51
2022/07/26 07:21:13;;;;;;;4.50;3.63;;;22.80;99.90;;;;;;5050791;28;20480;-47
2022/07/26 07:23:41;;;;;;;4.50;2.77;;;22.90;99.90;;;;;;5050940;28;20487;-48
2022/07/26 07:26:08;;;;;;;2.90;2.70;;;23.20;99.90;;;;;;5050584;28;20424;-47
2022/07/26 07:28:38;;;;;;;4.53;3.30;;;23.60;99.90;;;;;;5050487;28;20424;-46
2022/07/26 07:31:05;;;;;;;2.77;2.57;;;23.70;99.90;;;;;;5050735;28;20437;-50
2022/07/26 07:33:34;;;;;;;3.20;2.90;;;23.80;99.90;;;;;;5052607;28;20444;-47
2022/07/26 07:36:19;;;;;;;4.80;3.47;;;24.10;99.90;;;;;;5051142;28;20856;-44
2022/07/26 07:38:48;;;;;;;5.83;4.30;;;24.50;99.90;;;;;;5050640;28;20482;-47
2022/07/26 07:41:15;;;;;;;3.33;3.13;;;24.60;99.90;;;;;;5057822;28;20435;-47
2022/07/26 07:43:43;;;;;;;2.67;2.43;;;24.50;99.90;;;;;;5047367;28;20602;-44
2022/07/26 07:46:11;;;;;;;4.43;3.80;;;24.60;99.90;;;;;;5053245;28;20432;-49
2022/07/26 07:48:40;;;;;;;2.67;2.43;;;24.60;99.90;;;;;;5046340;28;20755;-45
2022/07/26 07:51:13;;;;;;;5.27;3.73;;;24.30;99.90;;;;;;5053649;28;20874;-48
2022/07/26 07:53:41;;;;;;;3.67;3.37;;;24.30;99.90;;;;;;5045383;28;20788;-50
2022/07/26 07:56:22;;;;;;;4.97;3.57;;;24.50;99.90;;;;;;5052500;28;20452;-51
2022/07/26 07:58:50;;;;;;;4.57;3.03;;;24.80;99.90;;;;;;5049374;28;20448;-49
2022/07/26 08:01:18;;;;;;;11.00;3.93;;;25.00;99.90;;;;;;5051474;28;20429;-50
2022/07/26 08:03:45;;;;;;;4.77;3.23;;;25.00;99.90;;;;;;5049915;28;20465;-47
2022/07/26 08:06:16;;;;;;;3.87;3.40;;;25.00;99.90;;;;;;5050033;28;20456;-46
2022/07/26 08:08:44;;;;;;;2.97;2.70;;;25.30;99.90;;;;;;5049668;28;20416;-48
2022/07/26 08:11:14;;;;;;;5.20;3.07;;;25.40;99.90;;;;;;5049233;28;20752;-49
2022/07/26 08:13:42;;;;;;;5.47;2.80;;;25.20;99.90;;;;;;5050004;28;20408;-49
2022/07/26 08:16:14;;;;;;;3.03;2.73;;;24.80;99.90;;;;;;5050658;28;20428;-47
2022/07/26 08:18:41;;;;;;;7.20;3.37;;;24.80;99.90;;;;;;5049944;28;20436;-48
2022/07/26 08:21:24;;;;;;;5.33;2.87;;;25.10;99.90;;;;;;5050601;28;20438;-48
2022/07/26 08:23:58;;;;;;;3.03;2.73;;;25.20;99.90;;;;;;5032222;28;20468;-49
2022/07/26 08:26:25;;;;;;;4.00;2.67;;;25.20;99.90;;;;;;5049851;28;20644;-45
2022/07/26 08:28:52;;;;;;;7.60;3.57;;;25.50;99.90;;;;;;5049779;28;20429;-48
2022/07/26 08:31:36;;;;;;;3.77;2.70;;;25.70;99.90;;;;;;5050595;28;20408;-46
2022/07/26 08:34:03;;;;;;;2.93;2.70;;;25.60;99.90;;;;;;5049243;28;20657;-48
2022/07/26 08:36:31;;;;;;;2.93;2.47;;;25.80;99.90;;;;;;5049873;28;20537;-46
2022/07/26 08:39:00;;;;;;;2.70;2.37;;;25.70;99.90;;;;;;5031411;28;20473;-46
2022/07/26 08:41:27;;;;;;;3.80;2.37;;;25.70;99.90;;;;;;5042784;28;20533;-47
2022/07/26 08:44:02;;;;;;;3.50;3.20;;;25.40;99.90;;;;;;5061413;28;20703;-45
2022/07/26 08:46:35;;;;;;;3.07;2.40;;;25.40;99.90;;;;;;5047289;28;20802;-49
2022/07/26 08:49:06;;;;;;;3.53;2.37;;;25.30;99.90;;;;;;5058245;28;20400;-48
2022/07/26 08:51:38;;;;;;;3.67;3.37;;;25.20;99.90;;;;;;5046267;28;20412;-49
2022/07/26 08:54:06;;;;;;;3.13;2.80;;;25.50;99.90;;;;;;5057344;28;20434;-48
2022/07/26 08:56:35;;;;;;;6.00;3.87;;;25.40;99.90;;;;;;5051374;28;20484;-46
2022/07/26 08:59:04;;;;;;;3.03;2.50;;;25.50;99.90;;;;;;5046302;28;20849;-45
2022/07/26 09:01:32;;;;;;;3.00;2.33;;;25.60;99.90;;;;;;5048457;28;20426;-46
2022/07/26 09:04:17;;;;;;;2.90;2.57;;;25.70;99.90;;;;;;5052406;28;20456;-48
2022/07/26 09:07:09;;;;;;;2.33;2.13;;;25.90;99.90;;;;;;5034938;28;20515;-45
2022/07/26 09:09:55;;;;;;;3.97;2.47;;;26.30;99.90;;;;;;5051560;28;20619;-48
2022/07/26 09:12:24;;;;;;;5.60;3.40;;;26.50;99.90;;;;;;5047117;28;20765;-46
2022/07/26 09:14:53;;;;;;;4.97;2.43;;;26.60;99.90;;;;;;5063015;28;20416;-50
2022/07/26 09:17:22;;;;;;;2.50;2.30;;;26.60;99.90;;;;;;5070102;28;20531;-53
2022/07/26 09:20:08;;;;;;;3.63;3.20;;;26.50;99.90;;;;;;5056592;28;20481;-50
2022/07/26 09:23:01;;;;;;;2.90;2.70;;;26.30;99.90;;;;;;5050122;28;20414;-52
2022/07/26 09:25:33;;;;;;;2.87;2.40;;;26.30;99.90;;;;;;5049225;28;20422;-45
2022/07/26 09:28:02;;;;;;;3.30;2.70;;;26.60;99.90;;;;;;5051672;28;20447;-50
2022/07/26 09:30:31;;;;;;;4.37;3.57;;;26.80;99.90;;;;;;5024998;28;20442;-48
2022/07/26 09:33:04;;;;;;;2.73;2.10;;;26.80;99.90;;;;;;5063404;28;20441;-46
2022/07/26 09:35:37;;;;;;;3.10;2.53;;;26.80;99.90;;;;;;5049502;28;20728;-44
2022/07/26 09:38:17;;;;;;;5.77;3.43;;;26.80;99.90;;;;;;5050285;28;20481;-45
2022/07/26 09:40:44;;;;;;;4.13;2.83;;;26.90;99.90;;;;;;5051609;28;20807;-49
2022/07/26 09:43:17;;;;;;;2.57;2.27;;;26.90;99.90;;;;;;5055107;28;20452;-49
2022/07/26 09:46:03;;;;;;;3.87;2.20;;;26.70;99.90;;;;;;5053218;28;20396;-47
2022/07/26 09:48:31;;;;;;;2.20;2.00;;;26.60;99.90;;;;;;5051929;28;20506;-48
2022/07/26 09:51:39;;;;;;;2.60;2.30;;;26.40;99.90;;;;;;5052386;28;20433;-47
2022/07/26 09:54:08;;;;;;;1.73;1.63;;;26.10;99.90;;;;;;5052026;28;20798;-53
2022/07/26 09:56:47;;;;;;;3.40;2.57;;;26.00;99.90;;;;;;5053836;28;20487;-50
2022/07/26 09:59:19;;;;;;;2.53;2.20;;;26.20;99.90;;;;;;5054212;28;20476;-47
2022/07/26 10:01:49;;;;;;;5.57;2.40;;;26.30;99.90;;;;;;5051225;28;20425;-46
2022/07/26 10:04:18;;;;;;;2.80;2.27;;;26.10;99.90;;;;;;5054121;28;20479;-50
2022/07/26 10:06:45;;;;;;;3.23;2.50;;;26.00;99.90;;;;;;5054749;28;20456;-48
2022/07/26 10:09:14;;;;;;;2.00;1.80;;;26.00;99.90;;;;;;5055025;28;20435;-51
2022/07/26 10:11:56;;;;;;;3.90;2.20;;;26.10;99.90;;;;;;5054919;28;20615;-46
2022/07/26 10:14:36;;;;;;;4.83;2.40;;;25.80;99.90;;;;;;5054544;28;20414;-46
2022/07/26 10:17:25;;;;;;;2.70;2.23;;;26.00;99.90;;;;;;5056224;28;20667;-53
2022/07/26 10:20:05;;;;;;;2.03;1.93;;;26.30;99.90;;;;;;5053197;28;20452;-47
2022/07/26 10:22:46;;;;;;;2.40;1.97;;;26.80;99.90;;;;;;5059379;28;20538;-54
2022/07/26 10:25:18;;;;;;;2.03;1.87;;;26.80;99.90;;;;;;5051332;28;20630;-46
2022/07/26 10:27:51;;;;;;;3.57;2.23;;;26.90;99.90;;;;;;5051775;28;20450;-49
2022/07/26 10:30:19;;;;;;;2.47;2.27;;;26.90;99.90;;;;;;5051300;28;20438;-46
2022/07/26 10:32:58;;;;;;;2.10;2.00;;;27.20;99.90;;;;;;5046426;28;20480;-48
2022/07/26 10:35:35;;;;;;;1.93;1.83;;;27.40;99.90;;;;;;5053050;28;20413;-50
2022/07/26 10:38:11;;;;;;;4.07;2.60;;;27.40;99.90;;;;;;5057531;28;20467;-47
2022/07/26 10:40:54;;;;;;;1.87;1.77;;;27.60;99.90;;;;;;5053342;28;20893;-49
2022/07/26 10:43:21;;;;;;;4.43;2.60;;;27.80;99.90;;;;;;5057139;28;20410;-48
2022/07/26 10:46:15;;;;;;;2.87;2.00;;;27.60;99.90;;;;;;5050290;28;20852;-50
2022/07/26 10:49:03;;;;;;;1.93;1.80;;;27.70;99.90;;;;;;5053194;28;20471;-48
2022/07/26 10:51:36;;;;;;;3.30;1.97;;;27.90;99.90;;;;;;5051071;28;20437;-47
2022/07/26 10:54:11;;;;;;;3.13;2.27;;;27.90;99.90;;;;;;5053220;28;20498;-45
2022/07/26 10:56:40;;;;;;;2.90;2.30;;;27.40;99.90;;;;;;5044323;28;20456;-48
2022/07/26 10:59:07;;;;;;;3.13;2.10;;;27.30;99.90;;;;;;5053456;28;20434;-45
2022/07/26 11:01:40;;;;;;;4.70;1.80;;;27.50;99.90;;;;;;5052316;28;20432;-46
2022/07/26 11:04:18;;;;;;;3.13;2.47;;;27.60;99.90;;;;;;5054523;28;20497;-48
2022/07/26 11:06:45;;;;;;;2.10;1.97;;;27.60;99.90;;;;;;5050099;28;20451;-44
2022/07/26 11:09:13;;;;;;;2.37;2.17;;;27.50;99.90;;;;;;5054530;28;20550;-46
2022/07/26 11:11:40;;;;;;;4.70;1.60;;;28.10;99.90;;;;;;5051349;28;20415;-48
2022/07/26 11:14:14;;;;;;;1.83;1.60;;;28.30;99.90;;;;;;5054642;28;20491;-48
2022/07/26 11:16:48;;;;;;;2.90;2.00;;;28.50;99.90;;;;;;5048507;28;20446;-49
2022/07/26 11:19:19;;;;;;;3.00;2.13;;;28.30;99.90;;;;;;5026002;28;20411;-46
2022/07/26 11:21:58;;;;;;;1.63;1.53;;;28.00;99.90;;;;;;5042983;28;20403;-48
2022/07/26 11:24:27;;;;;;;3.90;2.57;;;28.00;99.90;;;;;;5044039;28;20478;-50
2022/07/26 11:27:00;;;;;;;3.40;2.40;;;28.10;99.90;;;;;;5041627;28;20779;-47
2022/07/26 11:29:33;;;;;;;2.20;2.00;;;27.80;99.90;;;;;;5044383;28;20437;-52
2022/07/26 11:32:18;;;;;;;3.43;2.17;;;27.70;99.90;;;;;;5042738;28;20460;-45
2022/07/26 11:35:00;;;;;;;2.90;1.70;;;27.60;99.90;;;;;;5042930;28;20784;-47
2022/07/26 11:37:28;;;;;;;2.50;2.30;;;27.80;99.90;;;;;;5046705;28;20442;-51
2022/07/26 11:39:56;;;;;;;4.13;2.10;;;27.20;99.90;;;;;;5045050;28;20694;-49
2022/07/26 11:42:23;;;;;;;5.50;2.10;;;26.70;99.90;;;;;;5044763;28;20757;-48
2022/07/26 11:44:52;;;;;;;3.33;2.13;;;26.60;99.90;;;;;;5047253;28;20463;-47
2022/07/26 11:47:21;;;;;;;1.77;1.67;;;26.80;99.90;;;;;;5045063;28;20459;-44
2022/07/26 11:49:52;;;;;;;3.23;2.27;;;27.50;99.90;;;;;;5045289;28;20450;-46
2022/07/26 11:52:39;;;;;;;5.23;2.70;;;27.80;99.90;;;;;;5046520;28;20598;-46
2022/07/26 11:55:07;;;;;;;4.70;2.93;;;28.50;99.90;;;;;;5044638;28;20505;-49
2022/07/26 11:57:34;;;;;;;2.40;2.20;;;28.90;99.90;;;;;;5044367;28;20457;-51
2022/07/26 12:00:06;;;;;;;5.00;2.17;;;29.00;99.90;;;;;;5041304;28;20444;-47
2022/07/26 12:02:34;;;;;;;2.57;2.37;;;28.70;99.90;;;;;;5050827;28;20662;-53
2022/07/26 12:05:20;;;;;;;2.40;2.23;;;28.40;99.90;;;;;;5049518;28;20440;-51
2022/07/26 12:08:01;;;;;;;3.73;2.23;;;28.10;99.90;;;;;;5033140;28;20445;-48
2022/07/26 12:10:29;;;;;;;6.07;2.90;;;28.00;99.90;;;;;;5052230;28;20442;-48
2022/07/26 12:13:15;;;;;;;5.90;2.40;;;27.90;99.90;;;;;;5048775;28;20739;-49
2022/07/26 12:15:50;;;;;;;3.87;2.87;;;27.60;99.90;;;;;;5045472;28;20448;-48
2022/07/26 12:18:29;;;;;;;6.33;2.60;;;27.20;99.90;;;;;;5050862;28;20487;-52
2022/07/26 12:21:00;;;;;;;3.23;2.83;;;27.20;99.90;;;;;;5046243;28;20868;-49
2022/07/26 12:23:48;;;;;;;2.43;2.20;;;27.30;99.90;;;;;;5031106;28;20436;-47
2022/07/26 12:26:22;;;;;;;7.50;3.20;;;27.40;99.90;;;;;;5043180;28;20467;-47
2022/07/26 12:28:49;;;;;;;3.70;2.63;;;27.20;99.90;;;;;;5049970;28;20515;-46
2022/07/26 12:31:28;;;;;;;2.70;2.50;;;27.20;99.90;;;;;;5044792;28;20658;-48
2022/07/26 12:33:56;;;;;;;3.33;2.53;;;27.30;99.90;;;;;;5051584;28;20426;-48
2022/07/26 12:36:24;;;;;;;2.70;2.50;;;27.10;99.90;;;;;;5046352;28;20739;-51
2022/07/26 12:38:58;;;;;;;2.57;2.37;;;27.10;99.90;;;;;;5042013;28;20432;-52
2022/07/26 12:41:33;;;;;;;2.50;2.07;;;27.20;99.90;;;;;;5041941;28;20515;-48
2022/07/26 12:44:02;;;;;;;2.73;2.50;;;27.30;99.90;;;;;;5048438;28;20413;-53
2022/07/26 12:46:34;;;;;;;6.13;3.30;;;27.00;99.90;;;;;;5044127;28;20431;-48
2022/07/26 12:49:03;;;;;;;3.30;3.03;;;26.70;99.90;;;;;;5050607;28;20472;-48
2022/07/26 12:51:31;;;;;;;2.73;2.43;;;26.60;99.90;;;;;;5046278;28;20436;-47
2022/07/26 12:53:58;;;;;;;2.90;2.10;;;26.60;99.90;;;;;;5052182;28;20740;-49
2022/07/26 12:56:25;;;;;;;3.53;2.77;;;26.40;99.90;;;;;;5045091;28;20436;-49
2022/07/26 12:58:54;;;;;;;2.57;2.37;;;26.20;99.90;;;;;;5043724;28;20670;-50
2022/07/26 13:01:21;;;;;;;4.00;2.90;;;26.00;99.90;;;;;;5043983;28;20683;-52
2022/07/26 13:03:49;;;;;;;3.07;2.73;;;26.00;99.90;;;;;;5045359;28;20478;-49